Time;durP1;ratioP1;P1;durP2;ratioP2;P2;SDS_P1;SDS_P2;PMS_P1;PMS_P2;Temp;Humidity;BMP_temperature;BMP_pressure;BME280_temperature;BME280_humidity;BME280_pressure;Samples;Min_cycle;Max_cycle;Signal;HPM_P1;HPM_P2
2021/09/15 00:00:39;;;;;;;13.95;7.38;;;;;;;;;;5091399;28;20060;-81
2021/09/15 00:03:06;;;;;;;9.55;7.38;;;;;;;;;;5078379;28;20116;-81
2021/09/15 00:05:33;;;;;;;9.70;6.95;;;;;;;;;;5080237;28;20053;-81
2021/09/15 00:07:59;;;;;;;8.35;7.25;;;;;;;;;;5079343;28;20250;-81
2021/09/15 00:10:26;;;;;;;14.15;6.75;;;;;;;;;;5080061;28;20117;-82
2021/09/15 00:12:53;;;;;;;9.55;7.13;;;;;;;;;;5091049;28;20148;-81
2021/09/15 00:15:20;;;;;;;11.43;7.60;;;;;;;;;;5096052;28;20049;-81
2021/09/15 00:17:46;;;;;;;10.50;6.97;;;;;;;;;;5084344;28;20063;-81
2021/09/15 00:20:13;;;;;;;10.50;7.53;;;;;;;;;;5078857;28;20052;-82
2021/09/15 00:22:40;;;;;;;11.75;7.57;;;;;;;;;;5082140;28;20048;-82
2021/09/15 00:25:06;;;;;;;14.73;7.28;;;;;;;;;;5095733;28;20040;-82
2021/09/15 00:27:33;;;;;;;10.05;7.07;;;;;;;;;;5108130;28;20036;-82
2021/09/15 00:30:00;;;;;;;10.10;7.47;;;;;;;;;;5104621;28;20044;-82
2021/09/15 00:32:26;;;;;;;8.55;7.68;;;;;;;;;;5100376;28;20044;-82
2021/09/15 00:34:54;;;;;;;11.15;7.93;;;;;;;;;;5111628;28;20040;-82
2021/09/15 00:37:20;;;;;;;15.57;7.65;;;;;;;;;;5113612;28;20263;-82
2021/09/15 00:39:49;;;;;;;9.68;7.65;;;;;;;;;;5101692;28;20082;-82
2021/09/15 00:42:16;;;;;;;12.88;8.30;;;;;;;;;;5103226;28;20036;-82
2021/09/15 00:44:42;;;;;;;11.75;8.15;;;;;;;;;;5112280;28;20070;-82
2021/09/15 00:47:09;;;;;;;12.07;8.32;;;;;;;;;;5105914;28;20389;-82
2021/09/15 00:49:36;;;;;;;9.63;7.50;;;;;;;;;;5105695;28;20396;-83
2021/09/15 00:52:02;;;;;;;11.35;8.55;;;;;;;;;;5103214;28;20048;-82
2021/09/15 00:54:29;;;;;;;9.88;7.85;;;;;;;;;;5101184;28;20106;-82
2021/09/15 00:56:55;;;;;;;11.90;8.40;;;;;;;;;;5100329;28;20044;-82
2021/09/15 00:59:22;;;;;;;11.85;7.75;;;;;;;;;;5099532;28;20321;-82
2021/09/15 01:01:48;;;;;;;10.23;7.95;;;;;;;;;;5098935;28;20367;-82
2021/09/15 01:04:15;;;;;;;8.60;7.70;;;;;;;;;;5104111;28;20052;-82
2021/09/15 01:06:42;;;;;;;13.13;8.88;;;;;;;;;;5103231;28;20295;-82
2021/09/15 01:09:10;;;;;;;12.05;8.63;;;;;;;;;;5105816;28;20052;-82
2021/09/15 01:11:37;;;;;;;10.48;8.77;;;;;;;;;;5103028;28;20047;-82
2021/09/15 01:14:05;;;;;;;14.98;8.60;;;;;;;;;;5106221;28;20084;-81
2021/09/15 01:16:50;;;;;;;9.82;8.55;;;;;;;;;;5104744;28;20044;-81
2021/09/15 01:19:17;;;;;;;11.57;8.77;;;;;;;;;;5099274;28;20052;-81
2021/09/15 01:21:44;;;;;;;13.02;8.55;;;;;;;;;;5099247;28;20083;-81
2021/09/15 01:24:11;;;;;;;9.40;8.27;;;;;;;;;;5097645;28;20100;-81
2021/09/15 01:26:37;;;;;;;15.00;9.45;;;;;;;;;;5098870;28;20058;-81
2021/09/15 01:29:04;;;;;;;12.50;8.77;;;;;;;;;;5098812;28;20063;-81
2021/09/15 01:31:31;;;;;;;13.20;9.38;;;;;;;;;;5101047;28;20059;-82
2021/09/15 01:33:57;;;;;;;12.27;9.00;;;;;;;;;;5098833;28;20087;-82
2021/09/15 01:36:24;;;;;;;11.80;9.52;;;;;;;;;;5098660;28;20056;-82
2021/09/15 01:38:50;;;;;;;12.98;9.15;;;;;;;;;;5098677;28;20060;-82
2021/09/15 01:41:17;;;;;;;11.75;9.02;;;;;;;;;;5098363;28;20056;-82
2021/09/15 01:43:51;;;;;;;13.52;9.02;;;;;;;;;;5097456;28;20051;-81
2021/09/15 01:46:18;;;;;;;14.80;9.73;;;;;;;;;;5097192;28;20054;-82
2021/09/15 01:48:48;;;;;;;14.48;9.27;;;;;;;;;;5100722;28;20047;-82
2021/09/15 01:51:15;;;;;;;13.60;10.13;;;;;;;;;;5104364;28;20103;-82
2021/09/15 01:53:41;;;;;;;14.93;10.13;;;;;;;;;;5079696;28;20048;-82
2021/09/15 01:56:08;;;;;;;15.27;10.55;;;;;;;;;;5083477;28;20045;-82
2021/09/15 01:58:35;;;;;;;14.68;9.20;;;;;;;;;;5088506;28;20077;-82
2021/09/15 02:01:02;;;;;;;12.25;9.68;;;;;;;;;;5113561;28;20058;-81
2021/09/15 02:03:29;;;;;;;11.70;9.95;;;;;;;;;;5105581;28;20059;-83
2021/09/15 02:05:55;;;;;;;11.68;9.80;;;;;;;;;;5099255;28;20108;-83
2021/09/15 02:08:22;;;;;;;16.00;10.60;;;;;;;;;;5098476;28;20051;-83
2021/09/15 02:10:49;;;;;;;18.30;10.45;;;;;;;;;;5097854;28;20139;-83
2021/09/15 02:13:15;;;;;;;14.52;9.95;;;;;;;;;;5099967;28;20052;-82
2021/09/15 02:15:42;;;;;;;13.75;10.65;;;;;;;;;;5099681;28;20051;-82
2021/09/15 02:18:09;;;;;;;15.18;10.80;;;;;;;;;;5096730;28;20048;-82
2021/09/15 02:20:35;;;;;;;13.65;10.45;;;;;;;;;;5097388;28;20047;-82
2021/09/15 02:23:08;;;;;;;14.90;9.95;;;;;;;;;;5098012;28;20056;-82
2021/09/15 02:25:35;;;;;;;18.77;10.35;;;;;;;;;;5096423;28;20138;-82
2021/09/15 02:28:02;;;;;;;13.57;10.15;;;;;;;;;;5096992;28;20476;-81
2021/09/15 02:30:29;;;;;;;14.55;10.23;;;;;;;;;;5097004;28;20416;-82
2021/09/15 02:32:56;;;;;;;13.82;10.05;;;;;;;;;;5097566;28;20386;-82
2021/09/15 02:35:22;;;;;;;12.75;10.15;;;;;;;;;;5096762;28;20335;-82
2021/09/15 02:37:49;;;;;;;18.30;10.98;;;;;;;;;;5098189;28;20052;-82
2021/09/15 02:40:16;;;;;;;16.92;10.85;;;;;;;;;;5096459;28;20320;-82
2021/09/15 02:42:42;;;;;;;15.25;10.98;;;;;;;;;;5094514;28;20107;-82
2021/09/15 02:45:09;;;;;;;13.45;11.98;;;;;;;;;;5097300;28;20055;-82
2021/09/15 02:47:36;;;;;;;18.63;11.15;;;;;;;;;;5098377;28;20059;-82
2021/09/15 02:50:03;;;;;;;14.32;11.68;;;;;;;;;;5096997;28;20075;-82
2021/09/15 02:52:30;;;;;;;14.88;10.77;;;;;;;;;;5096389;28;20185;-82
2021/09/15 02:55:06;;;;;;;14.98;12.20;;;;;;;;;;5101775;28;20314;-82
2021/09/15 02:57:39;;;;;;;19.90;11.85;;;;;;;;;;5104934;28;20032;-81
2021/09/15 03:00:08;;;;;;;19.42;12.55;;;;;;;;;;5109775;28;20052;-82
2021/09/15 03:02:34;;;;;;;16.65;12.95;;;;;;;;;;5108426;28;20044;-83
2021/09/15 03:05:02;;;;;;;20.10;13.80;;;;;;;;;;5111844;28;20032;-82
2021/09/15 03:07:35;;;;;;;16.45;14.02;;;;;;;;;;5109170;28;20054;-83
2021/09/15 03:10:03;;;;;;;16.23;14.38;;;;;;;;;;5099773;28;20048;-83
2021/09/15 03:12:29;;;;;;;22.67;16.10;;;;;;;;;;5101148;28;20094;-82
2021/09/15 03:14:57;;;;;;;20.80;14.63;;;;;;;;;;5101711;28;20336;-82
2021/09/15 03:17:24;;;;;;;18.85;15.13;;;;;;;;;;5101306;28;20143;-82
2021/09/15 03:19:51;;;;;;;17.40;15.02;;;;;;;;;;5101278;28;20056;-82
2021/09/15 03:22:18;;;;;;;20.25;15.05;;;;;;;;;;5101672;28;20048;-82
2021/09/15 03:24:46;;;;;;;24.30;16.48;;;;;;;;;;5101569;28;20133;-81
2021/09/15 03:27:13;;;;;;;23.50;16.38;;;;;;;;;;5129797;28;20163;-83
2021/09/15 03:29:40;;;;;;;22.50;16.05;;;;;;;;;;5134751;28;20509;-83
2021/09/15 03:32:07;;;;;;;19.65;15.82;;;;;;;;;;5115584;28;20038;-81
2021/09/15 03:34:33;;;;;;;17.55;15.07;;;;;;;;;;5108633;28;20056;-82
2021/09/15 03:37:00;;;;;;;20.10;15.13;;;;;;;;;;5111482;28;20066;-82
2021/09/15 03:39:27;;;;;;;22.13;16.17;;;;;;;;;;5093504;28;20044;-83
2021/09/15 03:41:53;;;;;;;17.77;15.05;;;;;;;;;;5081437;28;20057;-82
2021/09/15 03:44:20;;;;;;;18.75;14.43;;;;;;;;;;5080224;28;20084;-82
2021/09/15 03:46:47;;;;;;;18.75;15.20;;;;;;;;;;5079996;28;20075;-84
2021/09/15 03:49:14;;;;;;;19.05;16.08;;;;;;;;;;5081187;28;20087;-82
2021/09/15 03:51:41;;;;;;;26.15;16.88;;;;;;;;;;5078051;28;20556;-82
2021/09/15 03:54:07;;;;;;;18.50;15.68;;;;;;;;;;5076822;28;20044;-82
2021/09/15 03:56:34;;;;;;;20.30;15.23;;;;;;;;;;5077590;28;20110;-82
2021/09/15 03:59:01;;;;;;;19.13;15.85;;;;;;;;;;5080552;28;20048;-82
2021/09/15 04:01:28;;;;;;;19.88;15.23;;;;;;;;;;5079614;28;20052;-82
2021/09/15 04:03:54;;;;;;;18.35;15.32;;;;;;;;;;5078217;28;20054;-83
2021/09/15 04:06:21;;;;;;;20.42;15.63;;;;;;;;;;5077482;28;20048;-83
2021/09/15 04:08:48;;;;;;;26.52;16.55;;;;;;;;;;5078436;28;20246;-83
2021/09/15 04:11:15;;;;;;;27.52;16.70;;;;;;;;;;5076577;28;20080;-83
2021/09/15 04:13:41;;;;;;;22.05;16.08;;;;;;;;;;5078606;28;20049;-82
2021/09/15 04:16:08;;;;;;;23.10;15.73;;;;;;;;;;5078414;28;20148;-82
2021/09/15 04:18:35;;;;;;;19.30;15.25;;;;;;;;;;5080217;28;20219;-83
2021/09/15 04:21:02;;;;;;;22.52;15.27;;;;;;;;;;5078399;28;20377;-82
2021/09/15 04:23:34;;;;;;;22.80;17.00;;;;;;;;;;5088250;28;20044;-83
2021/09/15 04:31:34;;;;;;;19.92;15.20;;;;;;;;;;5089641;28;20040;-83
2021/09/15 04:34:03;;;;;;;20.13;15.48;;;;;;;;;;5119824;28;20047;-83
2021/09/15 04:36:29;;;;;;;22.70;15.82;;;;;;;;;;5118509;28;20134;-83
2021/09/15 04:38:56;;;;;;;19.23;15.35;;;;;;;;;;5116505;28;20082;-83
2021/09/15 04:41:23;;;;;;;24.08;15.80;;;;;;;;;;5115251;28;20047;-83
2021/09/15 04:43:50;;;;;;;20.60;15.50;;;;;;;;;;5096131;28;20055;-83
2021/09/15 04:46:23;;;;;;;20.90;14.75;;;;;;;;;;5101021;28;20101;-82
2021/09/15 04:48:50;;;;;;;18.00;13.82;;;;;;;;;;5081003;28;20200;-82
2021/09/15 04:51:16;;;;;;;20.10;15.07;;;;;;;;;;5072074;28;20490;-82
2021/09/15 04:53:43;;;;;;;21.83;14.77;;;;;;;;;;5073559;28;20080;-82
2021/09/15 04:56:10;;;;;;;18.70;15.50;;;;;;;;;;5072626;28;20056;-84
2021/09/15 04:58:36;;;;;;;26.30;16.13;;;;;;;;;;5074198;28;20053;-84
2021/09/15 05:01:03;;;;;;;18.60;15.90;;;;;;;;;;5096452;28;20078;-83
2021/09/15 05:03:33;;;;;;;19.77;16.10;;;;;;;;;;5102179;28;20045;-83
2021/09/15 05:06:01;;;;;;;21.90;17.13;;;;;;;;;;5104577;28;20054;-84
2021/09/15 05:08:27;;;;;;;20.50;16.98;;;;;;;;;;5095073;28;20140;-84
2021/09/15 05:10:54;;;;;;;25.38;17.77;;;;;;;;;;5093805;28;20057;-83
2021/09/15 05:13:24;;;;;;;22.05;16.75;;;;;;;;;;5089690;28;20048;-84
2021/09/15 05:15:50;;;;;;;20.42;16.92;;;;;;;;;;5094967;28;20256;-84
2021/09/15 05:18:21;;;;;;;26.15;18.23;;;;;;;;;;5095016;28;20044;-85
2021/09/15 05:20:48;;;;;;;30.92;19.67;;;;;;;;;;5096590;28;20116;-84
2021/09/15 05:23:15;;;;;;;26.75;18.00;;;;;;;;;;5092136;28;20055;-85
2021/09/15 05:25:42;;;;;;;25.83;20.13;;;;;;;;;;5097572;28;20132;-84
2021/09/15 05:28:08;;;;;;;25.65;20.13;;;;;;;;;;5094708;28;20054;-84
2021/09/15 05:30:35;;;;;;;24.50;20.23;;;;;;;;;;5093526;28;20062;-84
2021/09/15 05:33:06;;;;;;;29.13;21.70;;;;;;;;;;5091567;28;20051;-83
2021/09/15 05:35:33;;;;;;;27.90;20.98;;;;;;;;;;5093024;28;20151;-84
2021/09/15 05:38:01;;;;;;;30.35;22.60;;;;;;;;;;5098999;28;20059;-85
2021/09/15 05:40:29;;;;;;;29.75;22.25;;;;;;;;;;5107809;28;20044;-85
2021/09/15 05:42:56;;;;;;;30.35;23.67;;;;;;;;;;5104184;28;20078;-85
2021/09/15 05:45:23;;;;;;;32.28;23.25;;;;;;;;;;5094202;28;20090;-83
2021/09/15 05:47:53;;;;;;;31.83;23.00;;;;;;;;;;5079898;28;20051;-86
2021/09/15 05:50:25;;;;;;;30.83;23.00;;;;;;;;;;5087214;28;20048;-84
2021/09/15 05:52:53;;;;;;;27.55;22.08;;;;;;;;;;5072668;28;20126;-83
2021/09/15 05:55:27;;;;;;;26.60;20.85;;;;;;;;;;5098133;28;20059;-84
2021/09/15 05:57:54;;;;;;;30.02;22.00;;;;;;;;;;5088824;28;20044;-84
2021/09/15 06:00:20;;;;;;;28.63;22.65;;;;;;;;;;5101685;28;20080;-84
2021/09/15 06:02:56;;;;;;;27.15;22.40;;;;;;;;;;5104132;28;20060;-86
2021/09/15 06:05:28;;;;;;;28.05;22.08;;;;;;;;;;5102747;28;20059;-85
2021/09/15 06:07:58;;;;;;;27.02;20.75;;;;;;;;;;5104329;28;20142;-86
2021/09/15 06:10:25;;;;;;;29.23;21.63;;;;;;;;;;5106678;28;20108;-85
2021/09/15 06:12:52;;;;;;;29.55;21.77;;;;;;;;;;5104420;28;20056;-87
2021/09/15 06:15:19;;;;;;;25.10;21.00;;;;;;;;;;5086697;28;20047;-85
2021/09/15 06:17:46;;;;;;;26.35;21.33;;;;;;;;;;5088833;28;20059;-85
2021/09/15 06:20:14;;;;;;;29.58;22.80;;;;;;;;;;5088227;28;20048;-84
2021/09/15 06:22:45;;;;;;;35.05;22.35;;;;;;;;;;5099353;28;20039;-87
2021/09/15 06:25:12;;;;;;;31.55;21.67;;;;;;;;;;5106995;28;20113;-89
2021/09/15 06:27:49;;;;;;;27.08;22.10;;;;;;;;;;5107465;28;20056;-88
2021/09/15 06:30:19;;;;;;;26.45;22.63;;;;;;;;;;5111258;28;20123;-87
2021/09/15 06:32:46;;;;;;;27.85;22.13;;;;;;;;;;5101710;28;20044;-86
2021/09/15 06:35:13;;;;;;;25.00;21.20;;;;;;;;;;5092850;28;20047;-85
2021/09/15 06:37:49;;;;;;;30.38;22.30;;;;;;;;;;5087081;28;20231;-87
2021/09/15 06:40:17;;;;;;;28.55;22.92;;;;;;;;;;5086184;28;20052;-84
2021/09/15 06:42:47;;;;;;;31.65;22.00;;;;;;;;;;5080736;28;20047;-86
2021/09/15 06:45:18;;;;;;;32.35;21.65;;;;;;;;;;5076668;28;20108;-84
2021/09/15 06:47:50;;;;;;;28.15;22.15;;;;;;;;;;5085716;28;20052;-86
2021/09/15 06:50:20;;;;;;;29.90;22.20;;;;;;;;;;5087742;28;20052;-84
2021/09/15 06:52:47;;;;;;;28.63;22.02;;;;;;;;;;5069931;28;20381;-84
2021/09/15 06:55:14;;;;;;;30.90;22.20;;;;;;;;;;5067030;28;20056;-84
2021/09/15 06:57:41;;;;;;;29.13;21.40;;;;;;;;;;5069056;28;20374;-85
2021/09/15 07:00:10;;;;;;;29.98;21.30;;;;;;;;;;5081997;28;20183;-84
2021/09/15 07:02:57;;;;;;;26.17;21.77;;;;;;;;;;5091409;28;20113;-85
2021/09/15 07:05:29;;;;;;;28.40;21.00;;;;;;;;;;5099094;28;20236;-86
2021/09/15 07:11:12;;;;;;;28.00;20.27;;;;;;;;;;5076842;28;20187;-85
2021/09/15 07:14:13;;;;;;;28.25;20.90;;;;;;;;;;4980940;28;20050;-84
2021/09/15 07:17:22;;;;;;;26.42;19.88;;;;;;;;;;5003871;28;20046;-85
2021/09/15 07:20:37;;;;;;;28.33;20.40;;;;;;;;;;5014477;28;20078;-84
2021/09/15 07:23:46;;;;;;;;;;;;;;;;;;;;;
2021/09/15 07:27:17;;;;;;;24.33;18.75;;;;;;;;;;4934381;29;20111;-85
2021/09/15 07:30:34;;;;;;;;;;;;;;;;;;;;;
2021/09/15 07:40:22;;;;;;;27.20;21.10;;;;;;;;;;4876753;29;20086;-86
2021/09/15 07:42:59;;;;;;;29.08;22.52;;;;;;;;;;4878771;29;20636;-85
2021/09/15 07:45:27;;;;;;;27.92;21.58;;;;;;;;;;4862926;29;20069;-86
2021/09/15 07:48:01;;;;;;;25.27;21.98;;;;;;;;;;4880684;29;20353;-84
2021/09/15 07:50:29;;;;;;;28.90;22.75;;;;;;;;;;4922631;29;20043;-85
2021/09/15 07:53:08;;;;;;;26.52;22.30;;;;;;;;;;4966686;29;20049;-88
2021/09/15 07:55:47;;;;;;;28.45;22.40;;;;;;;;;;4969707;28;20039;-89
2021/09/15 07:58:27;;;;;;;30.38;23.75;;;;;;;;;;4964401;28;20059;-89
2021/09/15 08:00:56;;;;;;;28.52;22.90;;;;;;;;;;5060991;28;20036;-87
2021/09/15 08:03:25;;;;;;;26.40;23.60;;;;;;;;;;5208282;22;20108;-88
2021/09/15 08:06:01;;;;;;;27.83;22.85;;;;;;;;;;5131640;28;20124;-87
2021/09/15 08:08:45;;;;;;;32.88;25.45;;;;;;;;;;5131809;27;20111;-89
2021/09/15 08:11:35;;;;;;;30.85;24.08;;;;;;;;;;5129748;28;20047;-89
2021/09/15 08:14:22;;;;;;;27.65;24.35;;;;;;;;;;5120967;28;20205;-89
2021/09/15 08:17:18;;;;;;;28.35;23.88;;;;;;;;;;5108663;28;20043;-87
2021/09/15 08:19:47;;;;;;;30.75;22.60;;;;;;;;;;5125044;28;20101;-87
2021/09/15 08:23:15;;;;;;;31.60;25.60;;;;;;;;;;5133465;28;20050;-88
2021/09/15 08:25:47;;;;;;;29.17;25.95;;;;;;;;;;5134295;28;20047;-89
2021/09/15 08:28:23;;;;;;;29.95;25.45;;;;;;;;;;5124140;28;20039;-88
2021/09/15 08:31:02;;;;;;;29.67;24.13;;;;;;;;;;5114443;28;20111;-89
2021/09/15 08:33:51;;;;;;;35.28;23.42;;;;;;;;;;5115782;28;20039;-90
2021/09/15 08:36:42;;;;;;;27.85;23.25;;;;;;;;;;5114185;28;20042;-90
2021/09/15 08:43:23;;;;;;;;;;;;;;;;;;;;;
2021/09/15 08:56:56;;;;;;;;;;;;;;;;;;;;;
2021/09/15 09:01:11;;;;;;;;;;;;;;;;;;;;;
2021/09/15 09:14:25;;;;;;;39.55;25.23;;;;;;;;;;4922350;29;20056;-89
2021/09/15 09:17:09;;;;;;;33.47;24.70;;;;;;;;;;4916215;29;20096;-88
2021/09/15 09:20:02;;;;;;;32.33;26.15;;;;;;;;;;4932485;29;20056;-88
2021/09/15 09:22:52;;;;;;;34.50;26.17;;;;;;;;;;4933807;29;20040;-90
2021/09/15 09:29:10;;;;;;;37.42;26.70;;;;;;;;;;4934968;29;20031;-90
2021/09/15 09:31:53;;;;;;;34.75;27.75;;;;;;;;;;4920229;29;20048;-90
2021/09/15 09:37:27;;;;;;;38.72;28.13;;;;;;;;;;5501672;22;20115;-89
2021/09/15 09:40:28;;;;;;;35.63;28.30;;;;;;;;;;5091986;28;20056;-89
2021/09/15 11:03:49;;;;;;;36.00;28.48;;;;;;;;;;1644912;22;20407;31
2021/09/15 11:13:27;;;;;;;38.33;27.92;;;;;;;;;;5008876;28;20241;-91
2021/09/15 12:36:22;;;;;;;37.60;29.50;;;;;;;;;;5081041;28;20316;-90
2021/09/15 12:56:19;;;;;;;;;;;;;;;;;;;;;
2021/09/15 12:58:53;;;;;;;31.98;24.65;;;;;;;;;;5066865;28;20052;-88
2021/09/15 13:01:23;;;;;;;25.90;23.13;;;;;;;;;;5072789;28;20056;-87
2021/09/15 13:03:54;;;;;;;29.77;22.73;;;;;;;;;;5067589;28;20237;-86
2021/09/15 13:06:27;;;;;;;28.95;23.27;;;;;;;;;;5069152;28;20057;-88
2021/09/15 13:08:54;;;;;;;27.42;23.35;;;;;;;;;;5058518;28;20059;-89
2021/09/15 13:11:21;;;;;;;26.30;21.80;;;;;;;;;;5076333;28;20056;-90
2021/09/15 13:13:49;;;;;;;25.35;20.60;;;;;;;;;;5078751;28;20302;-88
2021/09/15 13:16:20;;;;;;;26.05;20.88;;;;;;;;;;5077306;28;20304;-89
2021/09/15 13:18:47;;;;;;;22.23;17.25;;;;;;;;;;5080147;28;20048;-89
2021/09/15 13:21:16;;;;;;;25.25;19.30;;;;;;;;;;5086288;28;20156;-87
2021/09/15 13:23:49;;;;;;;27.75;20.63;;;;;;;;;;5087550;28;20069;-87
2021/09/15 13:26:18;;;;;;;23.75;18.88;;;;;;;;;;5068980;28;20053;-87
2021/09/15 13:32:34;;;;;;;;;;;;;;;;;;;;;
2021/09/15 14:47:34;;;;;;;;;;;;;;;;;;;;;
2021/09/15 14:58:28;;;;;;;;;;;;;;;;;;;;;
2021/09/15 15:35:53;;;;;;;;;;;;;;;;;;;;;
2021/09/15 16:00:28;;;;;;;;;;;;;;;;;;;;;
2021/09/15 17:20:21;;;;;;;;;;;;;;;;;;;;;
2021/09/15 17:26:52;;;;;;;;;;;;;;;;;;;;;
2021/09/15 17:40:56;;;;;;;27.92;22.95;;;;;;;;;;5068825;28;20055;-84
2021/09/15 17:44:18;;;;;;;30.25;24.42;;;;;;;;;;5007407;28;20396;-84
2021/09/15 17:57:42;;;;;;;;;;;;;;;;;;;;;
2021/09/15 18:04:53;;;;;;;36.45;27.33;;;;;;;;;;4794730;29;20342;-85
2021/09/15 18:08:21;;;;;;;42.50;31.45;;;;;;;;;;4779708;29;20298;-85
2021/09/15 18:32:01;;;;;;;43.13;29.27;;;;;;;;;;4857105;29;20292;-86
2021/09/15 18:46:27;;;;;;;36.22;25.15;;;;;;;;;;4814602;29;20114;-86
2021/09/15 18:49:23;;;;;;;;;;;;;;;;;;;;;
2021/09/15 19:33:41;;;;;;;35.13;23.20;;;;;;;;;;4886723;29;20301;-86
2021/09/15 19:43:56;;;;;;;39.53;24.02;;;;;;;;;;4861107;29;20081;-85
2021/09/15 19:50:37;;;;;;;;;;;;;;;;;;;;;
2021/09/15 20:00:11;;;;;;;36.80;21.63;;;;;;;;;;4845760;29;20224;-85
2021/09/15 20:06:47;;;;;;;;;;;;;;;;;;;;;
2021/09/15 20:22:57;;;;;;;27.92;16.55;;;;;;;;;;5002113;28;20422;-87
2021/09/15 20:33:10;;;;;;;20.40;11.90;;;;;;;;;;4940529;29;20043;-86
2021/09/15 20:36:01;;;;;;;;;;;;;;;;;;;;;
2021/09/15 20:45:45;;;;;;;13.70;9.55;;;;;;;;;;5027078;28;20049;-86
2021/09/15 21:05:44;;;;;;;17.25;9.93;;;;;;;;;;5020549;28;20049;-86
2021/09/15 21:12:11;;;;;;;14.27;8.30;;;;;;;;;;4994192;28;20248;-86
2021/09/15 21:25:43;;;;;;;;;;;;;;;;;;;;;
2021/09/15 21:28:46;;;;;;;13.55;5.35;;;;;;;;;;5012087;28;20307;-85
2021/09/15 21:38:45;;;;;;;;;;;;;;;;;;;;;
2021/09/15 21:42:00;;;;;;;14.63;5.32;;;;;;;;;;5050341;28;20106;-84
2021/09/15 21:44:56;;;;;;;10.35;4.75;;;;;;;;;;5066171;28;20047;-84
2021/09/15 21:47:56;;;;;;;9.50;4.22;;;;;;;;;;5068087;28;20086;-84
2021/09/15 21:54:35;;;;;;;10.35;4.25;;;;;;;;;;5041207;28;20061;-85
2021/09/15 21:57:42;;;;;;;;;;;;;;;;;;;;;
2021/09/15 22:07:09;;;;;;;;;;;;;;;;;;;;;
2021/09/15 22:10:30;;;;;;;16.33;4.15;;;;;;;;;;5064334;28;20061;-86
2021/09/15 22:13:45;;;;;;;9.65;4.57;;;;;;;;;;5067923;28;20086;-85
2021/09/15 22:17:21;;;;;;;;;;;;;;;;;;;;;
2021/09/15 22:30:48;;;;;;;10.52;3.60;;;;;;;;;;5104941;28;20038;-85
2021/09/15 22:33:38;;;;;;;15.25;4.10;;;;;;;;;;5112170;28;20621;-85
2021/09/15 22:36:33;;;;;;;9.40;3.55;;;;;;;;;;5103685;28;20467;-85
2021/09/15 22:39:25;;;;;;;7.35;3.53;;;;;;;;;;5073849;28;20043;-85
2021/09/15 22:46:08;;;;;;;7.72;3.50;;;;;;;;;;5104875;28;20030;-85
2021/09/15 22:48:56;;;;;;;9.82;3.42;;;;;;;;;;5114179;28;20412;-86
2021/09/15 22:51:53;;;;;;;7.53;3.05;;;;;;;;;;5111661;28;20047;-85
2021/09/15 22:54:54;;;;;;;6.38;3.35;;;;;;;;;;5108833;28;20509;-85
2021/09/15 23:01:22;;;;;;;8.52;3.20;;;;;;;;;;5115512;28;20039;-85
2021/09/15 23:04:44;;;;;;;10.88;2.97;;;;;;;;;;5115869;28;20043;-85
2021/09/15 23:07:33;;;;;;;9.88;3.28;;;;;;;;;;5066887;28;20124;-86
2021/09/15 23:10:17;;;;;;;;;;;;;;;;;;;;;
2021/09/15 23:13:06;;;;;;;10.13;2.40;;;;;;;;;;5096743;28;20099;-86
2021/09/15 23:16:08;;;;;;;4.57;2.15;;;;;;;;;;5090950;28;20059;-85
2021/09/15 23:22:26;;;;;;;10.73;2.92;;;;;;;;;;5046397;28;20239;-85
2021/09/15 23:25:48;;;;;;;9.48;2.30;;;;;;;;;;5042130;28;20049;-86
2021/09/15 23:28:45;;;;;;;6.03;2.45;;;;;;;;;;5021245;28;20053;-85
2021/09/15 23:31:55;;;;;;;9.07;2.42;;;;;;;;;;4974864;28;20057;-85
2021/09/15 23:34:33;;;;;;;10.82;2.42;;;;;;;;;;5018846;28;20054;-85
2021/09/15 23:37:16;;;;;;;8.15;2.00;;;;;;;;;;5004207;28;20072;-85
2021/09/15 23:39:43;;;;;;;6.22;2.13;;;;;;;;;;5003855;28;20539;-85
2021/09/15 23:42:18;;;;;;;7.57;2.10;;;;;;;;;;5002541;28;20193;-85
2021/09/15 23:45:04;;;;;;;7.05;2.38;;;;;;;;;;5020787;28;20135;-86
2021/09/15 23:47:34;;;;;;;6.45;1.80;;;;;;;;;;5019940;28;20054;-85
2021/09/15 23:50:05;;;;;;;5.38;1.70;;;;;;;;;;5062381;28;20482;-85
2021/09/15 23:52:38;;;;;;;5.32;1.52;;;;;;;;;;5073680;28;20054;-85
2021/09/15 23:55:12;;;;;;;3.80;1.20;;;;;;;;;;5088902;28;20118;-85
2021/09/15 23:57:43;;;;;;;6.25;1.10;;;;;;;;;;5066622;28;20392;-85
